createdAt,value
2022-11-24T00:02:05.902Z,6.23
2022-11-24T00:04:53.053Z,14.17
2022-11-24T00:07:39.885Z,13.30
2022-11-24T00:10:28.413Z,9.73
2022-11-24T00:13:15.509Z,13.07
2022-11-24T00:16:06.448Z,10.67
2022-11-24T00:18:54.951Z,8.87
2022-11-24T00:21:41.699Z,8.03
2022-11-24T00:24:28.522Z,10.50
2022-11-24T00:27:16.473Z,10.17
2022-11-24T00:30:03.208Z,9.50
2022-11-24T00:32:50.252Z,13.00
2022-11-24T00:35:37.218Z,12.33
2022-11-24T00:38:24.355Z,10.37
2022-11-24T00:41:11.815Z,9.17
2022-11-24T00:44:00.318Z,8.80
2022-11-24T00:46:47.381Z,9.63
2022-11-24T00:49:36.088Z,11.17
2022-11-24T00:52:22.920Z,11.03
2022-11-24T00:55:09.965Z,10.97
2022-11-24T00:57:56.755Z,9.03
2022-11-24T01:00:44.887Z,11.80
2022-11-24T01:03:32.008Z,13.77
2022-11-24T01:06:20.594Z,6.83
2022-11-24T01:09:07.594Z,11.70
2022-11-24T01:12:04.304Z,5.10
2022-11-24T01:14:51.389Z,10.20
2022-11-24T01:17:39.952Z,7.40
2022-11-24T01:20:27.107Z,9.30
2022-11-24T01:23:14.146Z,6.87
2022-11-24T01:26:01.121Z,11.30
2022-11-24T01:28:48.916Z,11.50
2022-11-24T01:31:36.867Z,7.67
2022-11-24T01:34:25.375Z,11.07
2022-11-24T01:37:12.380Z,13.83
2022-11-24T01:39:59.718Z,9.07
2022-11-24T01:42:49.192Z,8.70
2022-11-24T01:45:40.637Z,9.60
2022-11-24T01:48:30.257Z,10.57
2022-11-24T01:51:21.799Z,12.40
2022-11-24T01:54:12.408Z,11.13
2022-11-24T01:57:01.407Z,6.60
2022-11-24T01:59:48.607Z,6.13
2022-11-24T02:02:40.434Z,7.53
2022-11-24T02:05:29.867Z,12.63
2022-11-24T02:08:22.262Z,8.03
2022-11-24T02:11:09.350Z,10.50
2022-11-24T02:13:57.227Z,11.33
2022-11-24T02:16:49.209Z,8.57
2022-11-24T02:19:43.296Z,11.93
2022-11-24T02:22:34.539Z,5.13
2022-11-24T02:25:30.458Z,8.30
2022-11-24T02:28:20.451Z,5.57
2022-11-24T02:31:08.038Z,8.87
2022-11-24T02:33:55.412Z,7.63
2022-11-24T02:36:42.383Z,6.57
2022-11-24T02:39:29.455Z,9.33
2022-11-24T02:42:16.677Z,4.93
2022-11-24T02:45:04.971Z,6.53
2022-11-24T02:47:51.651Z,13.77
2022-11-24T02:50:39.088Z,7.80
2022-11-24T02:53:26.241Z,9.97
2022-11-24T02:56:13.334Z,9.43
2022-11-24T02:59:00.230Z,9.93
2022-11-24T03:01:48.653Z,5.47
2022-11-24T03:04:36.201Z,9.80
2022-11-24T03:07:24.013Z,10.10
2022-11-24T03:10:11.404Z,6.40
2022-11-24T03:12:58.245Z,8.40
2022-11-24T03:15:45.312Z,8.23
2022-11-24T03:18:33.690Z,9.53
2022-11-24T03:21:20.428Z,3.37
2022-11-24T03:24:07.590Z,5.00
2022-11-24T03:26:54.298Z,8.87
2022-11-24T03:29:41.379Z,10.90
2022-11-24T03:32:28.580Z,5.87
2022-11-24T03:35:17.035Z,3.73
2022-11-24T03:38:04.355Z,7.13
2022-11-24T03:40:51.284Z,7.67
2022-11-24T03:43:43.138Z,5.57
2022-11-24T03:46:31.289Z,7.00
2022-11-24T03:49:18.546Z,4.67
2022-11-24T03:52:08.388Z,3.60
2022-11-24T03:54:55.630Z,5.73
2022-11-24T03:57:42.489Z,4.50
2022-11-24T04:00:29.660Z,4.43
2022-11-24T04:03:16.615Z,6.23
2022-11-24T04:06:03.557Z,8.13
2022-11-24T04:08:52.087Z,3.70
2022-11-24T04:11:56.772Z,7.60
2022-11-24T04:14:43.773Z,6.57
2022-11-24T04:17:30.872Z,5.10
2022-11-24T04:20:18.519Z,6.07
2022-11-24T04:23:06.083Z,10.37
2022-11-24T04:25:54.610Z,6.30
2022-11-24T04:28:41.740Z,3.27
2022-11-24T04:31:28.841Z,4.63
2022-11-24T04:34:16.032Z,3.20
2022-11-24T04:37:03.216Z,9.40
2022-11-24T04:39:50.142Z,4.83
2022-11-24T04:42:38.537Z,7.90
2022-11-24T04:45:25.938Z,7.30
2022-11-24T04:48:13.210Z,4.87
2022-11-24T04:51:00.188Z,4.00
2022-11-24T04:53:47.552Z,7.10
2022-11-24T04:56:34.503Z,6.33
2022-11-24T04:59:22.955Z,3.80
2022-11-24T05:02:10.407Z,8.33
2022-11-24T05:04:57.561Z,5.30
2022-11-24T05:07:44.380Z,8.80
2022-11-24T05:10:37.296Z,9.00
2022-11-24T05:13:24.170Z,10.17
2022-11-24T05:16:12.836Z,9.93
2022-11-24T05:19:00.236Z,10.97
2022-11-24T05:21:47.223Z,5.13
2022-11-24T05:24:34.159Z,12.20
2022-11-24T05:27:21.234Z,8.10
2022-11-24T05:30:08.976Z,4.40
2022-11-24T05:32:57.472Z,11.23
2022-11-24T05:35:44.441Z,11.37
2022-11-24T05:38:32.091Z,12.37
2022-11-24T05:41:18.525Z,10.83
2022-11-24T05:44:05.941Z,9.67
2022-11-24T05:46:53.180Z,4.83
2022-11-24T05:49:41.501Z,12.03
2022-11-24T05:52:28.705Z,10.27
2022-11-24T05:55:16.370Z,11.87
2022-11-24T05:58:03.785Z,8.20
2022-11-24T06:00:50.742Z,6.97
2022-11-24T06:03:37.811Z,11.97
2022-11-24T06:06:26.388Z,5.17
2022-11-24T06:09:13.591Z,11.03
2022-11-24T06:12:00.771Z,7.20
2022-11-24T06:14:48.274Z,14.70
2022-11-24T06:17:35.550Z,11.43
2022-11-24T06:20:22.683Z,10.40
2022-11-24T06:23:11.004Z,10.67
2022-11-24T06:25:59.483Z,11.27
2022-11-24T06:28:46.440Z,9.73
2022-11-24T06:31:33.490Z,8.43
2022-11-24T06:34:20.670Z,8.00
2022-11-24T06:37:07.749Z,7.07
2022-11-24T06:39:56.453Z,13.47
2022-11-24T06:42:43.398Z,11.00
2022-11-24T06:45:30.599Z,10.03
2022-11-24T06:48:17.828Z,10.17
2022-11-24T06:51:05.710Z,12.37
2022-11-24T06:53:52.951Z,7.97
2022-11-24T06:56:41.483Z,8.97
2022-11-24T06:59:29.195Z,13.27
2022-11-24T07:02:16.198Z,16.47
2022-11-24T07:05:03.844Z,7.47
2022-11-24T07:07:51.191Z,16.87
2022-11-24T07:10:38.848Z,10.93
2022-11-24T07:13:27.217Z,8.23
2022-11-24T07:16:15.903Z,11.43
2022-11-24T07:19:03.317Z,10.93
2022-11-24T07:21:50.054Z,9.43
2022-11-24T07:24:37.277Z,14.13
2022-11-24T07:27:24.503Z,12.30
2022-11-24T07:30:13.362Z,14.27
2022-11-24T07:33:00.962Z,15.07
2022-11-24T07:35:47.994Z,16.67
2022-11-24T07:38:35.321Z,7.87
2022-11-24T07:41:22.437Z,16.93
2022-11-24T07:44:09.941Z,13.37
2022-11-24T07:46:58.202Z,7.67
2022-11-24T07:49:45.319Z,17.63
2022-11-24T07:52:32.293Z,15.70
2022-11-24T07:55:19.308Z,14.87
2022-11-24T07:58:06.643Z,16.43
2022-11-24T08:00:53.862Z,14.47
2022-11-24T08:03:42.263Z,12.40
2022-11-24T08:06:38.658Z,7.67
2022-11-24T08:09:27.726Z,8.83
2022-11-24T08:12:16.460Z,7.60
2022-11-24T08:15:07.841Z,10.37
2022-11-24T08:17:57.726Z,10.30
2022-11-24T08:20:46.637Z,14.90
2022-11-24T08:23:33.798Z,10.40
2022-11-24T08:26:20.823Z,10.03
2022-11-24T08:29:09.349Z,9.30
2022-11-24T08:31:57.248Z,11.77
2022-11-24T08:34:44.081Z,6.10
2022-11-24T08:37:32.475Z,8.23
2022-11-24T08:40:19.745Z,9.13
2022-11-24T08:43:06.908Z,7.53
2022-11-24T08:45:54.176Z,3.03
2022-11-24T08:48:41.839Z,7.00
2022-11-24T08:51:29.598Z,4.43
2022-11-24T08:54:18.834Z,4.90
2022-11-24T08:57:06.092Z,2.53
2022-11-24T08:59:53.563Z,2.60
2022-11-24T09:02:42.455Z,6.87
2022-11-24T09:05:51.251Z,4.27
2022-11-24T09:08:37.055Z,3.83
2022-11-24T09:11:26.001Z,2.90
2022-11-24T09:14:13.169Z,6.70
2022-11-24T09:17:00.680Z,2.87
2022-11-24T09:19:48.363Z,4.03
2022-11-24T09:22:35.617Z,2.27
2022-11-24T09:25:23.592Z,7.30
2022-11-24T09:28:11.535Z,3.63
2022-11-24T09:31:01.925Z,8.13
2022-11-24T09:33:49.141Z,2.17
2022-11-24T09:36:36.655Z,5.07
2022-11-24T09:39:23.744Z,1.80
2022-11-24T09:42:15.827Z,4.63
2022-11-24T09:45:19.955Z,4.20
2022-11-24T09:48:22.319Z,4.03
2022-11-24T09:51:12.177Z,4.33
2022-11-24T09:54:03.004Z,1.63
2022-11-24T09:56:51.262Z,1.90
2022-11-24T09:59:38.270Z,5.97
2022-11-24T10:02:26.760Z,2.37
2022-11-24T10:05:15.491Z,1.57
2022-11-24T10:08:10.117Z,1.67
2022-11-24T10:10:59.646Z,2.50
2022-11-24T10:14:00.654Z,1.90
2022-11-24T10:16:52.725Z,1.60
2022-11-24T10:19:47.061Z,1.37
2022-11-24T10:22:40.842Z,2.27
2022-11-24T10:25:28.810Z,2.97
2022-11-24T10:28:16.766Z,1.70
2022-11-24T10:31:15.467Z,3.90
2022-11-24T10:34:04.345Z,2.63
2022-11-24T10:36:57.510Z,1.50
2022-11-24T10:39:51.520Z,3.30
2022-11-24T10:42:42.692Z,1.20
2022-11-24T10:45:30.457Z,1.87
2022-11-24T10:48:20.786Z,1.80
2022-11-24T10:51:19.972Z,1.47
2022-11-24T10:54:13.311Z,1.50
2022-11-24T10:57:00.676Z,3.43
2022-11-24T10:59:47.939Z,2.47
2022-11-24T11:02:37.558Z,4.30
2022-11-24T11:05:42.377Z,1.57
2022-11-24T11:08:30.259Z,3.33
2022-11-24T11:11:23.747Z,1.70
2022-11-24T11:14:13.006Z,1.83
2022-11-24T11:17:00.800Z,2.83
2022-11-24T11:19:50.210Z,2.77
2022-11-24T11:22:38.787Z,1.60
2022-11-24T11:25:27.738Z,1.30
2022-11-24T11:28:26.739Z,1.37
2022-11-24T11:31:22.560Z,1.37
2022-11-24T11:34:25.044Z,2.57
2022-11-24T11:37:18.153Z,3.43
2022-11-24T11:40:08.043Z,2.93
2022-11-24T11:43:03.039Z,2.00
2022-11-24T11:45:58.032Z,3.80
2022-11-24T11:48:46.743Z,1.80
2022-11-24T11:51:44.534Z,1.40
2022-11-24T11:54:36.973Z,4.60
2022-11-24T11:57:31.115Z,4.77
2022-11-24T12:00:20.003Z,3.30
2022-11-24T12:03:19.424Z,3.43
2022-11-24T12:06:15.383Z,3.57
2022-11-24T12:09:20.653Z,2.73
2022-11-24T12:12:16.987Z,4.10
2022-11-24T12:15:11.071Z,4.17
2022-11-24T12:18:16.982Z,7.83
2022-11-24T12:21:24.581Z,6.67
2022-11-24T12:24:18.336Z,4.37
2022-11-24T12:27:07.501Z,5.10
2022-11-24T12:30:06.865Z,6.63
2022-11-24T12:33:20.126Z,6.17
2022-11-24T12:36:12.659Z,5.30
2022-11-24T12:39:05.611Z,4.63
2022-11-24T12:42:01.580Z,6.93
2022-11-24T12:44:57.292Z,5.63
2022-11-24T12:47:52.146Z,4.33
2022-11-24T12:50:39.879Z,5.50
2022-11-24T12:53:29.483Z,4.57
2022-11-24T12:56:24.755Z,6.83
2022-11-24T12:59:25.380Z,5.87
2022-11-24T13:02:17.754Z,4.47
2022-11-24T13:05:13.751Z,6.47
2022-11-24T13:08:03.685Z,5.20
2022-11-24T13:10:56.387Z,3.87
2022-11-24T13:13:59.556Z,4.20
2022-11-24T13:17:30.058Z,5.13
2022-11-24T13:20:17.314Z,6.23
2022-11-24T13:23:08.495Z,5.63
2022-11-24T13:26:16.606Z,5.10
2022-11-24T13:29:18.377Z,4.00
2022-11-24T13:32:51.714Z,2.93
2022-11-24T13:35:39.480Z,4.30
2022-11-24T13:38:41.123Z,5.80
2022-11-24T13:41:47.327Z,4.47
2022-11-24T13:44:56.222Z,6.00
2022-11-24T13:47:45.817Z,3.40
2022-11-24T13:50:52.194Z,4.53
2022-11-24T13:53:44.709Z,4.93
2022-11-24T13:56:32.694Z,8.27
2022-11-24T13:59:34.036Z,6.73
2022-11-24T14:02:24.209Z,5.17
2022-11-24T14:05:15.092Z,3.77
2022-11-24T14:08:02.205Z,5.07
2022-11-24T14:10:49.362Z,5.97
2022-11-24T14:13:36.615Z,8.30
2022-11-24T14:16:24.594Z,7.83
2022-11-24T14:19:13.279Z,6.50
2022-11-24T14:22:00.554Z,9.30
2022-11-24T14:24:52.949Z,6.37
2022-11-24T14:27:40.820Z,4.17
2022-11-24T14:30:28.235Z,6.03
2022-11-24T14:33:15.901Z,7.83
2022-11-24T14:36:04.368Z,7.67
2022-11-24T14:38:51.714Z,7.50
2022-11-24T14:41:39.017Z,13.90
2022-11-24T14:44:28.131Z,4.73
2022-11-24T14:47:18.704Z,6.10
2022-11-24T14:50:13.608Z,8.23
2022-11-24T14:53:02.199Z,4.50
2022-11-24T14:56:08.570Z,4.50
2022-11-24T14:58:56.892Z,5.43
2022-11-24T15:01:44.500Z,5.83
2022-11-24T15:05:03.104Z,8.77
2022-11-24T15:07:51.490Z,5.77
2022-11-24T15:10:40.761Z,12.97
2022-11-24T15:13:28.031Z,4.83
2022-11-24T15:16:17.406Z,9.60
2022-11-24T15:19:06.697Z,8.60
2022-11-24T15:21:53.849Z,5.63
2022-11-24T15:24:50.340Z,7.43
2022-11-24T15:27:38.831Z,7.47
2022-11-24T15:30:26.218Z,6.47
2022-11-24T15:33:15.400Z,13.70
2022-11-24T15:36:02.824Z,10.07
2022-11-24T15:38:49.724Z,12.70
2022-11-24T15:41:37.162Z,10.43
2022-11-24T15:44:25.524Z,8.27
2022-11-24T15:47:12.608Z,5.70
2022-11-24T15:49:59.952Z,4.47
2022-11-24T15:52:46.948Z,8.57
2022-11-24T15:55:34.077Z,6.93
2022-11-24T15:58:21.150Z,6.93
2022-11-24T16:01:09.625Z,6.60
2022-11-24T16:03:56.409Z,5.33
2022-11-24T16:06:43.570Z,10.13
2022-11-24T16:09:30.727Z,7.27
2022-11-24T16:12:18.016Z,7.07
2022-11-24T16:15:05.087Z,11.63
2022-11-24T16:17:53.438Z,11.67
2022-11-24T16:20:40.378Z,16.57
2022-11-24T16:23:27.493Z,7.67
2022-11-24T16:26:14.680Z,7.90
2022-11-24T16:29:01.958Z,6.70
2022-11-24T16:31:50.415Z,8.80
2022-11-24T16:34:38.628Z,8.63
2022-11-24T16:37:25.731Z,8.60
2022-11-24T16:40:13.131Z,7.67
2022-11-24T16:43:00.075Z,13.83
2022-11-24T16:45:47.256Z,13.07
2022-11-24T16:48:37.190Z,12.20
2022-11-24T16:51:32.995Z,13.20
2022-11-24T16:54:21.617Z,7.87
2022-11-24T16:57:15.020Z,6.00
2022-11-24T17:00:02.602Z,9.57
2022-11-24T17:02:49.974Z,10.13
2022-11-24T17:05:36.948Z,12.93
2022-11-24T17:08:25.743Z,12.60
2022-11-24T17:11:14.308Z,6.57
2022-11-24T17:14:01.418Z,8.37
2022-11-24T17:16:48.749Z,11.87
2022-11-24T17:19:35.798Z,9.23
2022-11-24T17:22:23.058Z,7.77
2022-11-24T17:25:11.586Z,14.00
2022-11-24T17:27:58.675Z,15.40
2022-11-24T17:30:45.823Z,22.57
2022-11-24T17:33:32.885Z,11.43
2022-11-24T17:36:19.855Z,12.33
2022-11-24T17:39:08.019Z,9.77
2022-11-24T17:41:56.403Z,9.40
2022-11-24T17:44:43.611Z,14.53
2022-11-24T17:47:30.860Z,14.70
2022-11-24T17:50:22.560Z,12.00
2022-11-24T17:53:12.876Z,15.17
2022-11-24T17:56:03.480Z,12.10
2022-11-24T17:58:54.222Z,9.63
2022-11-24T18:01:41.294Z,17.27
2022-11-24T18:04:28.366Z,17.73
2022-11-24T18:07:15.421Z,28.63
2022-11-24T18:10:02.702Z,16.97
2022-11-24T18:12:49.639Z,12.20
2022-11-24T18:15:38.071Z,13.47
2022-11-24T18:18:24.933Z,15.13
2022-11-24T18:21:14.134Z,13.40
2022-11-24T18:24:01.085Z,17.27
2022-11-24T18:26:48.256Z,16.93
2022-11-24T18:29:35.203Z,16.33
2022-11-24T18:32:23.985Z,20.27
2022-11-24T18:35:11.772Z,30.10
2022-11-24T18:37:59.075Z,24.23
2022-11-24T18:40:46.342Z,16.97
2022-11-24T18:43:33.913Z,14.50
2022-11-24T18:46:21.219Z,9.77
2022-11-24T18:49:10.082Z,10.93
2022-11-24T18:51:57.421Z,22.17
2022-11-24T18:54:44.403Z,16.07
2022-11-24T18:57:31.900Z,21.00
2022-11-24T19:00:19.346Z,18.47
2022-11-24T19:03:06.731Z,15.73
2022-11-24T19:05:55.252Z,16.77
2022-11-24T19:08:42.373Z,25.33
2022-11-24T19:11:30.194Z,33.03
2022-11-24T19:14:19.067Z,19.57
2022-11-24T19:17:06.550Z,27.87
2022-11-24T19:19:53.875Z,19.20
2022-11-24T19:22:42.400Z,13.33
2022-11-24T19:25:29.326Z,16.73
2022-11-24T19:28:16.393Z,13.37
2022-11-24T19:31:03.880Z,21.37
2022-11-24T19:33:52.935Z,15.60
2022-11-24T19:36:43.086Z,20.87
2022-11-24T19:39:31.258Z,15.80
2022-11-24T19:42:18.645Z,20.00
2022-11-24T19:45:06.568Z,18.90
2022-11-24T19:47:53.513Z,19.67
2022-11-24T19:50:40.458Z,19.07
2022-11-24T19:53:27.846Z,15.07
2022-11-24T19:56:18.822Z,12.77
2022-11-24T19:59:07.438Z,18.20
2022-11-24T20:01:55.119Z,18.07
2022-11-24T20:04:43.219Z,11.60
2022-11-24T20:07:30.383Z,13.10
2022-11-24T20:10:17.547Z,14.50
2022-11-24T20:13:05.580Z,19.80
2022-11-24T20:15:52.829Z,14.87
2022-11-24T20:18:42.192Z,13.60
2022-11-24T20:21:31.243Z,17.83
2022-11-24T20:24:19.077Z,19.73
2022-11-24T20:27:06.439Z,16.90
2022-11-24T20:29:54.895Z,12.73
2022-11-24T20:32:42.108Z,21.93
2022-11-24T20:35:29.391Z,21.63
2022-11-24T20:38:16.405Z,19.23
2022-11-24T20:41:09.027Z,18.80
2022-11-24T20:43:57.694Z,19.13
2022-11-24T20:46:46.645Z,21.90
2022-11-24T20:49:33.896Z,26.07
2022-11-24T20:52:21.112Z,14.60
2022-11-24T20:55:08.554Z,26.23
2022-11-24T20:57:55.529Z,21.70
2022-11-24T21:00:42.668Z,19.00
2022-11-24T21:03:30.996Z,15.40
2022-11-24T21:06:18.203Z,18.03
2022-11-24T21:09:05.800Z,25.03
2022-11-24T21:11:52.650Z,21.37
2022-11-24T21:14:39.853Z,18.60
2022-11-24T21:17:26.750Z,14.43
2022-11-24T21:20:14.992Z,17.23
2022-11-24T21:23:03.131Z,20.33
2022-11-24T21:25:49.920Z,16.57
2022-11-24T21:28:37.097Z,18.37
2022-11-24T21:31:24.408Z,33.67
2022-11-24T21:34:15.204Z,18.27
2022-11-24T21:37:03.692Z,18.77
2022-11-24T21:39:50.711Z,19.87
2022-11-24T21:42:37.967Z,18.97
2022-11-24T21:45:25.356Z,25.20
2022-11-24T21:48:12.190Z,22.73
2022-11-24T21:50:59.864Z,17.80
2022-11-24T21:53:49.381Z,16.47
2022-11-24T21:56:36.321Z,19.43
2022-11-24T21:59:23.472Z,18.20
2022-11-24T22:02:13.217Z,15.67
2022-11-24T22:05:00.760Z,18.83
2022-11-24T22:07:47.908Z,17.43
2022-11-24T22:10:36.128Z,11.73
2022-11-24T22:13:23.011Z,19.83
2022-11-24T22:16:11.103Z,15.00
2022-11-24T22:18:58.485Z,16.37
2022-11-24T22:21:45.657Z,17.40
2022-11-24T22:24:32.937Z,13.87
2022-11-24T22:27:21.409Z,19.00
2022-11-24T22:30:10.443Z,16.30
2022-11-24T22:32:57.207Z,21.30
2022-11-24T22:35:44.293Z,26.03
2022-11-24T22:38:32.046Z,12.17
2022-11-24T22:41:19.667Z,15.10
2022-11-24T22:44:08.204Z,12.73
2022-11-24T22:46:55.486Z,16.97
2022-11-24T22:49:42.822Z,20.63
2022-11-24T22:52:29.747Z,20.20
2022-11-24T22:55:16.729Z,12.63
2022-11-24T22:58:03.847Z,24.13
2022-11-24T23:00:52.431Z,15.83
2022-11-24T23:03:39.326Z,15.30
2022-11-24T23:06:26.947Z,18.73
2022-11-24T23:09:14.355Z,15.27
2022-11-24T23:12:01.651Z,15.47
2022-11-24T23:14:48.713Z,13.40
2022-11-24T23:17:37.122Z,13.30
2022-11-24T23:20:24.293Z,15.27
2022-11-24T23:23:11.349Z,15.23
2022-11-24T23:26:01.135Z,14.93
2022-11-24T23:28:48.287Z,16.53
2022-11-24T23:31:35.541Z,10.73
2022-11-24T23:34:24.073Z,16.37
2022-11-24T23:37:11.037Z,19.60
2022-11-24T23:39:58.532Z,15.50
2022-11-24T23:42:48.250Z,17.67
2022-11-24T23:45:35.171Z,13.20
2022-11-24T23:48:22.114Z,14.13
2022-11-24T23:51:13.442Z,19.10
2022-11-24T23:54:01.155Z,15.30
2022-11-24T23:56:48.343Z,13.07
2022-11-24T23:59:35.386Z,12.60
